Otis Orchards, Washington
Current Conditions -  °F | °C
As of 11:58 AM on Saturday 20 Dec 2014 (Local Time) from KSFF Reporting Station
Overcast Overcast  
Wind Chill: 38°   Ceiling: 2300
Heat Index: 43°   Visibility: 10mi
Dew Point: 37°   Wind: 8mph
Humidity: 80%   Direction: 120°ESE
Pressure: 29.79"   Gusts: NA
Location:  47.7°N, 117.11°W
Report Text: KSFF 201958Z 12007KT 10SM BKN023 OVC034 06/03 A2979 RMK AO2 T00610028
Loading
Personal Weather Stations






























Interactive Weather Map New forecast layout! Learn more

10-Day Weather Forecast

Advertisements
Track Severe Weather on mobile